LEMD/MAD METAR and TAF weather

Enter ICAO airport designator
Station Type Date Time Source
LEMD METAR 2022/07/03 14:30 UTC NOAA

LEMD 031430Z 24011G22KT 160V280 CAVOK 34/12 Q1017 NOSIG


Station Type Date Time Source
LEMD Decoded METAR 2022/07/03 14:30 UTC NOAA

Madrid / Barajas, Spain (LEMD) 40-27N 003-33W 582M
Jul 03, 2022 - 10:30 AM EDT / 2022.07.03 1430 UTC
Wind: from the WSW (240 degrees) at 13 MPH (11 KT) gusting to 25 MPH (22 KT) (direction variable):0
Visibility: greater than 7 mile(s):0
Temperature: 93 F (34 C)
Dew Point: 53 F (12 C)
Relative Humidity: 26%
Pressure (altimeter): 30.03 in. Hg (1017 hPa)
ob: LEMD 031430Z 24011G22KT 160V280 CAVOK 34/12 Q1017 NOSIG
cycle: 14

Station Type Date Time Source
LEMD TAF 2022/07/03 12:27 UTC NOAA

TAF LEMD 031100Z 0312/0418 22012KT CAVOK TX36/0415Z TN20/0406Z PROB40
TEMPO 0312/0320 22015G27KT PROB30
TEMPO 0312/0318 TS SCT045CB
BECMG 0319/0321 VRB04KT
BECMG 0408/0410 23012KT
TEMPO 0412/0418 23012G22KT

Example: see airport list